createdAt,value
2018-12-18T00:00:24.003Z,92.40
2018-12-18T00:02:54.753Z,92.50
2018-12-18T00:05:30.983Z,92.70
2018-12-18T00:07:59.797Z,92.70
2018-12-18T00:10:34.121Z,92.80
2018-12-18T00:13:02.894Z,92.60
2018-12-18T00:15:31.733Z,92.60
2018-12-18T00:18:00.631Z,93.00
2018-12-18T00:20:29.498Z,92.90
2018-12-18T00:22:58.367Z,93.10
2018-12-18T00:25:27.138Z,93.00
2018-12-18T00:27:55.920Z,93.20
2018-12-18T00:30:24.816Z,93.30
2018-12-18T00:32:53.636Z,93.20
2018-12-18T00:35:22.418Z,93.10
2018-12-18T00:37:51.190Z,93.00
2018-12-18T00:40:20.131Z,92.90
2018-12-18T00:42:49.019Z,93.00
2018-12-18T00:45:17.990Z,93.00
2018-12-18T00:47:46.742Z,92.90
2018-12-18T00:50:15.674Z,93.10
2018-12-18T00:52:44.746Z,93.00
2018-12-18T00:55:13.589Z,93.00
2018-12-18T00:57:42.470Z,93.00
2018-12-18T01:00:11.766Z,92.80
2018-12-18T01:02:40.614Z,92.70
2018-12-18T01:05:09.550Z,92.60
2018-12-18T01:07:38.394Z,92.80
2018-12-18T01:10:07.311Z,92.80
2018-12-18T01:12:36.087Z,92.50
2018-12-18T01:15:05.258Z,92.80
2018-12-18T01:17:34.022Z,92.80
2018-12-18T01:20:02.958Z,92.40
2018-12-18T01:22:31.755Z,92.00
2018-12-18T01:25:00.545Z,92.10
2018-12-18T01:27:29.396Z,92.00
2018-12-18T01:29:58.242Z,92.10
2018-12-18T01:32:27.003Z,92.30
2018-12-18T01:34:55.783Z,92.30
2018-12-18T01:37:24.569Z,92.30
2018-12-18T01:39:53.335Z,92.30
2018-12-18T01:42:22.155Z,92.30
2018-12-18T01:44:50.937Z,92.30
2018-12-18T01:47:19.739Z,92.40
2018-12-18T01:49:48.674Z,92.30
2018-12-18T01:52:17.475Z,92.70
2018-12-18T01:54:46.266Z,92.80
2018-12-18T01:57:15.046Z,93.10
2018-12-18T01:59:43.929Z,93.10
2018-12-18T02:02:12.715Z,93.20
2018-12-18T02:04:41.555Z,93.50
2018-12-18T02:07:10.429Z,93.50
2018-12-18T02:09:39.234Z,93.60
2018-12-18T02:12:08.011Z,93.70
2018-12-18T02:14:36.834Z,93.70
2018-12-18T02:17:05.632Z,93.80
2018-12-18T02:19:34.410Z,94.10
2018-12-18T02:22:03.284Z,94.10
2018-12-18T02:24:32.065Z,94.00
2018-12-18T02:27:00.982Z,94.00
2018-12-18T02:29:29.760Z,94.10
2018-12-18T02:31:58.517Z,94.00
2018-12-18T02:34:27.321Z,93.70
2018-12-18T02:36:56.092Z,93.80
2018-12-18T02:39:24.871Z,93.80
2018-12-18T02:41:53.678Z,93.80
2018-12-18T02:44:22.513Z,93.80
2018-12-18T02:46:51.295Z,93.90
2018-12-18T02:49:20.321Z,93.90
2018-12-18T02:51:49.090Z,93.90
2018-12-18T02:54:17.872Z,93.90
2018-12-18T02:56:46.638Z,93.80
2018-12-18T02:59:15.431Z,93.80
2018-12-18T03:01:44.208Z,93.90
2018-12-18T03:04:13.077Z,93.90
2018-12-18T03:06:41.858Z,93.90
2018-12-18T03:09:10.619Z,94.00
2018-12-18T03:11:39.383Z,93.80
2018-12-18T03:14:08.154Z,93.70
2018-12-18T03:16:36.928Z,93.60
2018-12-18T03:19:05.853Z,93.40
2018-12-18T03:21:34.662Z,93.30
2018-12-18T03:24:03.518Z,93.30
2018-12-18T03:26:32.371Z,93.30
2018-12-18T03:29:01.230Z,93.40
2018-12-18T03:31:30.551Z,93.50
2018-12-18T03:33:59.364Z,93.50
2018-12-18T03:36:28.106Z,93.50
2018-12-18T03:38:56.928Z,93.40
2018-12-18T03:41:25.985Z,93.40
2018-12-18T03:43:54.772Z,93.20
2018-12-18T03:46:23.561Z,93.20
2018-12-18T03:48:52.397Z,93.40
2018-12-18T03:51:21.172Z,93.40
2018-12-18T03:53:49.952Z,93.50
2018-12-18T03:56:18.744Z,93.50
2018-12-18T03:58:47.656Z,94.00
2018-12-18T04:01:16.447Z,93.70
2018-12-18T04:03:45.257Z,93.80
2018-12-18T04:06:14.043Z,94.00
2018-12-18T04:08:42.887Z,94.20
2018-12-18T04:11:11.667Z,94.20
2018-12-18T04:13:40.438Z,94.20
2018-12-18T04:16:09.231Z,94.30
2018-12-18T04:18:38.064Z,94.60
2018-12-18T04:21:06.838Z,94.20
2018-12-18T04:23:35.598Z,94.30
2018-12-18T04:26:04.463Z,94.30
2018-12-18T04:28:33.249Z,94.40
2018-12-18T04:31:02.049Z,94.40
2018-12-18T04:33:30.837Z,94.30
2018-12-18T04:35:59.624Z,94.30
2018-12-18T04:38:28.474Z,94.30
2018-12-18T04:40:57.290Z,94.20
2018-12-18T04:43:26.137Z,94.20
2018-12-18T04:45:54.889Z,94.30
2018-12-18T04:48:23.713Z,94.40
2018-12-18T04:50:52.533Z,94.30
2018-12-18T04:53:21.301Z,94.30
2018-12-18T04:55:50.112Z,94.40
2018-12-18T04:58:18.882Z,94.30
2018-12-18T05:00:47.671Z,94.50
2018-12-18T05:03:16.436Z,94.10
2018-12-18T05:05:45.201Z,93.90
2018-12-18T05:08:13.986Z,93.80
2018-12-18T05:10:42.786Z,93.90
2018-12-18T05:13:11.554Z,94.00
2018-12-18T05:15:40.575Z,93.90
2018-12-18T05:18:09.369Z,94.10
2018-12-18T05:20:38.134Z,94.10
2018-12-18T05:23:06.962Z,94.20
2018-12-18T05:25:35.750Z,94.20
2018-12-18T05:28:04.520Z,94.20
2018-12-18T05:30:33.294Z,94.20
2018-12-18T05:33:02.085Z,94.10
2018-12-18T05:35:30.877Z,94.10
2018-12-18T05:37:59.730Z,93.90
2018-12-18T05:40:28.505Z,93.70
2018-12-18T05:42:57.501Z,93.60
2018-12-18T05:45:26.260Z,93.40
2018-12-18T05:47:55.122Z,93.30
2018-12-18T05:50:23.880Z,93.00
2018-12-18T05:52:52.773Z,93.40
2018-12-18T05:55:21.604Z,92.90
2018-12-18T05:57:50.437Z,93.10
2018-12-18T06:00:19.274Z,93.10
2018-12-18T06:02:48.071Z,93.20
2018-12-18T06:05:16.840Z,93.40
2018-12-18T06:07:45.684Z,93.50
2018-12-18T06:10:14.458Z,93.70
2018-12-18T06:12:43.307Z,93.80
2018-12-18T06:15:12.101Z,93.80
2018-12-18T06:17:40.978Z,93.90
2018-12-18T06:20:09.871Z,93.90
2018-12-18T06:22:38.646Z,93.80
2018-12-18T06:25:07.592Z,93.80
2018-12-18T06:27:36.444Z,93.90
2018-12-18T06:30:05.753Z,93.80
2018-12-18T06:32:34.628Z,93.70
2018-12-18T06:35:09.994Z,93.70
2018-12-18T06:37:34.298Z,93.80
2018-12-18T06:40:03.364Z,94.00
2018-12-18T06:42:32.241Z,93.70
2018-12-18T06:45:00.959Z,93.50
2018-12-18T06:47:29.788Z,93.40
2018-12-18T06:49:58.630Z,93.50
2018-12-18T06:52:27.403Z,93.50
2018-12-18T06:54:56.192Z,93.30
2018-12-18T06:57:24.959Z,93.40
2018-12-18T06:59:53.749Z,93.40
2018-12-18T07:02:22.502Z,93.40
2018-12-18T07:04:51.274Z,93.60
2018-12-18T07:07:20.041Z,93.40
2018-12-18T07:09:48.818Z,93.60
2018-12-18T07:12:17.681Z,93.40
2018-12-18T07:14:46.457Z,93.30
2018-12-18T07:17:15.212Z,93.40
2018-12-18T07:19:44.013Z,93.30
2018-12-18T07:22:13.343Z,93.30
2018-12-18T07:24:42.131Z,93.30
2018-12-18T07:27:10.886Z,93.20
2018-12-18T07:29:39.671Z,93.10
2018-12-18T07:32:08.441Z,93.20
2018-12-18T07:34:37.210Z,93.10
2018-12-18T07:37:06.006Z,93.10
2018-12-18T07:39:34.806Z,93.00
2018-12-18T07:42:03.645Z,92.90
2018-12-18T07:44:32.415Z,93.30
2018-12-18T07:47:02.238Z,92.90
2018-12-18T07:49:31.015Z,92.90
2018-12-18T07:51:59.838Z,92.80
2018-12-18T07:54:28.615Z,92.70
2018-12-18T07:56:57.503Z,92.60
2018-12-18T07:59:26.313Z,92.50
2018-12-18T08:01:55.919Z,92.50
2018-12-18T08:04:24.691Z,92.10
2018-12-18T08:06:53.467Z,92.10
2018-12-18T08:09:22.241Z,92.00
2018-12-18T08:11:51.126Z,91.80
2018-12-18T08:14:19.899Z,91.70
2018-12-18T08:16:48.650Z,91.30
2018-12-18T08:19:17.434Z,90.50
2018-12-18T08:21:46.216Z,88.40
2018-12-18T08:24:15.002Z,86.10
2018-12-18T08:26:44.899Z,81.10
2018-12-18T08:29:13.694Z,76.60
2018-12-18T08:31:42.463Z,74.60
2018-12-18T08:34:11.248Z,75.50
2018-12-18T08:36:40.029Z,76.40
2018-12-18T08:39:09.496Z,76.10
2018-12-18T08:41:38.252Z,76.70
2018-12-18T08:44:07.107Z,79.10
2018-12-18T08:46:35.938Z,80.10
2018-12-18T08:49:04.708Z,81.70
2018-12-18T08:51:33.488Z,83.70
2018-12-18T08:54:02.254Z,85.10
2018-12-18T08:56:31.141Z,85.00
2018-12-18T08:58:59.902Z,84.40
2018-12-18T09:01:29.842Z,81.10
2018-12-18T09:03:58.692Z,75.70
2018-12-18T09:06:27.554Z,70.70
2018-12-18T09:08:56.342Z,66.90
2018-12-18T09:11:25.120Z,64.90
2018-12-18T09:13:53.903Z,63.50
2018-12-18T09:16:28.227Z,65.60
2018-12-18T09:18:56.993Z,68.00
2018-12-18T09:21:25.929Z,67.40
2018-12-18T09:23:54.773Z,63.90
2018-12-18T09:26:23.575Z,62.50
2018-12-18T09:28:52.348Z,61.80
2018-12-18T09:31:21.128Z,61.20
2018-12-18T09:33:49.903Z,61.00
2018-12-18T09:36:18.703Z,61.30
2018-12-18T09:38:53.935Z,62.10
2018-12-18T09:41:25.588Z,61.60
2018-12-18T09:44:00.662Z,59.10
2018-12-18T09:46:29.510Z,58.00
2018-12-18T09:48:58.291Z,58.70
2018-12-18T09:51:27.224Z,60.90
2018-12-18T09:53:55.986Z,60.20
2018-12-18T09:56:24.801Z,59.60
2018-12-18T09:58:53.581Z,57.40
2018-12-18T10:01:22.378Z,56.40
2018-12-18T10:03:51.159Z,56.50
2018-12-18T10:06:20.026Z,55.60
2018-12-18T10:08:49.900Z,53.40
2018-12-18T10:11:18.729Z,52.70
2018-12-18T10:13:47.494Z,51.10
2018-12-18T10:16:16.270Z,51.40
2018-12-18T10:18:45.048Z,52.50
2018-12-18T10:21:13.846Z,53.30
2018-12-18T10:23:42.638Z,52.80
2018-12-18T10:26:11.429Z,52.50
2018-12-18T10:28:40.213Z,52.60
2018-12-18T10:31:08.992Z,52.30
2018-12-18T10:33:37.766Z,53.20
2018-12-18T10:36:06.554Z,53.50
2018-12-18T10:38:35.407Z,55.80
2018-12-18T10:41:04.244Z,55.80
2018-12-18T10:43:33.129Z,56.10
2018-12-18T10:46:01.890Z,56.20
2018-12-18T10:48:30.663Z,58.00
2018-12-18T10:50:59.721Z,58.80
2018-12-18T10:53:28.626Z,60.70
2018-12-18T10:55:57.417Z,64.00
2018-12-18T10:58:26.266Z,64.90
2018-12-18T11:01:00.567Z,66.40
2018-12-18T11:03:29.353Z,67.50
2018-12-18T11:05:58.149Z,68.10
2018-12-18T11:08:26.933Z,69.80
2018-12-18T11:10:55.694Z,71.00
2018-12-18T11:13:24.520Z,71.70
2018-12-18T11:15:53.416Z,72.70
2018-12-18T11:18:22.305Z,73.30
2018-12-18T11:20:51.167Z,73.40
2018-12-18T11:23:19.947Z,74.40
2018-12-18T11:25:49.761Z,72.90
2018-12-18T11:28:18.562Z,73.20
2018-12-18T11:30:47.340Z,73.40
2018-12-18T11:33:16.183Z,73.60
2018-12-18T11:35:44.961Z,74.10
2018-12-18T11:38:13.742Z,74.70
2018-12-18T11:40:42.510Z,73.90
2018-12-18T11:43:11.284Z,74.10
2018-12-18T11:45:40.129Z,74.90
2018-12-18T11:48:08.898Z,75.60
2018-12-18T11:50:37.679Z,75.50
2018-12-18T11:53:06.766Z,75.90
2018-12-18T11:55:35.674Z,76.00
2018-12-18T11:58:04.561Z,75.40
2018-12-18T12:00:33.461Z,75.20
2018-12-18T12:03:02.309Z,75.20
2018-12-18T12:05:33.038Z,75.00
2018-12-18T12:08:01.878Z,74.80
2018-12-18T12:10:30.685Z,74.70
2018-12-18T12:12:59.472Z,74.00
2018-12-18T12:15:28.268Z,74.30
2018-12-18T12:17:57.103Z,74.10
2018-12-18T12:20:25.974Z,74.50
2018-12-18T12:22:54.819Z,74.30
2018-12-18T12:25:23.590Z,75.20
2018-12-18T12:27:57.653Z,75.40
2018-12-18T12:30:26.502Z,75.00
2018-12-18T12:32:55.281Z,74.30
2018-12-18T12:35:24.054Z,73.90
2018-12-18T12:37:52.838Z,73.90
2018-12-18T12:40:21.603Z,74.70
2018-12-18T12:42:50.374Z,74.90
2018-12-18T12:45:19.194Z,74.90
2018-12-18T12:47:51.378Z,75.40
2018-12-18T12:50:20.278Z,75.30
2018-12-18T12:52:49.060Z,75.70
2018-12-18T12:55:18.086Z,76.80
2018-12-18T12:57:46.910Z,77.10
2018-12-18T13:00:15.740Z,76.90
2018-12-18T13:02:44.541Z,77.90
2018-12-18T13:05:13.384Z,78.30
2018-12-18T13:07:42.237Z,78.80
2018-12-18T13:10:11.083Z,78.50
2018-12-18T13:12:39.851Z,79.40
2018-12-18T13:15:08.793Z,79.30
2018-12-18T13:17:37.627Z,79.40
2018-12-18T13:20:06.642Z,79.70
2018-12-18T13:22:35.502Z,79.40
2018-12-18T13:25:05.123Z,79.40
2018-12-18T13:27:33.883Z,80.10
2018-12-18T13:30:02.726Z,80.40
2018-12-18T13:32:32.624Z,80.80
2018-12-18T13:35:01.458Z,80.80
2018-12-18T13:37:30.234Z,81.40
2018-12-18T13:39:58.978Z,82.20
2018-12-18T13:42:27.757Z,81.70
2018-12-18T13:44:56.527Z,81.80
2018-12-18T13:47:27.272Z,82.20
2018-12-18T13:49:56.037Z,82.70
2018-12-18T13:52:24.809Z,82.40
2018-12-18T13:54:53.589Z,82.30
2018-12-18T13:57:22.393Z,83.20
2018-12-18T13:59:51.174Z,83.60
2018-12-18T14:02:19.921Z,83.90
2018-12-18T14:04:48.687Z,83.90
2018-12-18T14:07:17.445Z,84.10
2018-12-18T14:09:46.321Z,84.00
2018-12-18T14:12:16.026Z,84.60
2018-12-18T14:14:44.809Z,84.20
2018-12-18T14:17:13.603Z,83.60
2018-12-18T14:19:42.378Z,84.10
2018-12-18T14:22:11.146Z,84.30
2018-12-18T14:24:39.980Z,85.00
2018-12-18T14:27:08.837Z,85.70
2018-12-18T14:29:37.594Z,84.80
2018-12-18T14:32:06.439Z,85.00
2018-12-18T14:34:35.211Z,85.30
2018-12-18T14:37:04.102Z,85.10
2018-12-18T14:39:32.885Z,84.80
2018-12-18T14:42:01.652Z,85.80
2018-12-18T14:44:30.423Z,85.40
2018-12-18T14:46:59.188Z,85.50
2018-12-18T14:49:27.963Z,86.10
2018-12-18T14:51:56.718Z,86.20
2018-12-18T14:54:25.957Z,85.70
2018-12-18T14:56:54.735Z,86.30
2018-12-18T14:59:23.777Z,86.50
2018-12-18T15:01:52.621Z,86.50
2018-12-18T15:04:21.447Z,86.80
2018-12-18T15:06:50.202Z,87.90
2018-12-18T15:09:18.982Z,87.60
2018-12-18T15:11:47.750Z,87.10
2018-12-18T15:14:16.509Z,87.20
2018-12-18T15:16:45.411Z,86.80
2018-12-18T15:19:14.218Z,87.30
2018-12-18T15:21:43.056Z,87.30
2018-12-18T15:24:11.819Z,87.10
2018-12-18T15:26:40.662Z,87.10
2018-12-18T15:29:09.502Z,87.10
2018-12-18T15:31:38.246Z,87.10
2018-12-18T15:34:07.025Z,87.30
2018-12-18T15:36:35.869Z,87.50
2018-12-18T15:39:06.589Z,87.80
2018-12-18T15:41:36.549Z,88.00
2018-12-18T15:44:05.485Z,88.00
2018-12-18T15:46:34.314Z,87.80
2018-12-18T15:49:03.169Z,88.10
2018-12-18T15:51:32.000Z,88.20
2018-12-18T15:54:00.773Z,88.30
2018-12-18T15:56:29.534Z,88.20
2018-12-18T15:58:58.302Z,87.90
2018-12-18T16:01:27.089Z,88.00
2018-12-18T16:03:55.861Z,87.90
2018-12-18T16:06:24.606Z,88.30
2018-12-18T16:08:53.382Z,88.00
2018-12-18T16:11:22.128Z,88.10
2018-12-18T16:13:50.907Z,88.30
2018-12-18T16:16:19.745Z,88.60
2018-12-18T16:18:48.601Z,88.50
2018-12-18T16:21:17.458Z,88.60
2018-12-18T16:23:46.357Z,88.60
2018-12-18T16:26:17.107Z,88.30
2018-12-18T16:28:45.867Z,88.20
2018-12-18T16:31:14.632Z,88.20
2018-12-18T16:33:43.387Z,88.50
2018-12-18T16:36:12.288Z,88.00
2018-12-18T16:38:41.042Z,88.10
2018-12-18T16:41:09.801Z,88.20
2018-12-18T16:43:38.558Z,88.30
2018-12-18T16:48:52.191Z,87.60
2018-12-18T16:51:21.102Z,87.40
2018-12-18T16:53:49.976Z,87.70
2018-12-18T16:56:18.751Z,87.80
2018-12-18T16:58:47.515Z,88.00
2018-12-18T17:01:16.297Z,87.80
2018-12-18T17:03:45.114Z,87.40
2018-12-18T17:06:21.543Z,87.20
2018-12-18T17:08:51.499Z,87.00
2018-12-18T17:11:20.300Z,87.20
2018-12-18T17:13:49.125Z,87.10
2018-12-18T17:16:17.930Z,87.30
2018-12-18T17:18:46.799Z,87.70
2018-12-18T17:21:15.567Z,87.70
2018-12-18T17:23:44.327Z,87.10
2018-12-18T17:26:19.865Z,86.60
2018-12-18T17:28:48.730Z,86.50
2018-12-18T17:31:18.551Z,86.60
2018-12-18T17:33:47.330Z,87.00
2018-12-18T17:36:16.095Z,87.30
2018-12-18T17:38:44.862Z,87.30
2018-12-18T17:41:13.627Z,87.70
2018-12-18T17:43:42.731Z,87.50
2018-12-18T17:46:11.554Z,87.40
2018-12-18T17:48:40.383Z,87.40
2018-12-18T17:51:09.142Z,87.50
2018-12-18T17:53:37.910Z,88.00
2018-12-18T17:56:06.894Z,88.10
2018-12-18T17:58:35.683Z,88.50
2018-12-18T18:01:04.555Z,88.60
2018-12-18T18:03:33.320Z,88.50
2018-12-18T18:06:02.391Z,88.30
2018-12-18T18:08:31.157Z,88.60
2018-12-18T18:10:59.929Z,88.10
2018-12-18T18:13:28.722Z,88.20
2018-12-18T18:15:57.579Z,88.00
2018-12-18T18:18:26.359Z,88.90
2018-12-18T18:20:55.134Z,88.10
2018-12-18T18:23:24.943Z,88.20
2018-12-18T18:25:54.044Z,88.40
2018-12-18T18:28:22.865Z,87.40
2018-12-18T18:30:51.626Z,87.90
2018-12-18T18:33:21.339Z,88.00
2018-12-18T18:35:50.116Z,88.10
2018-12-18T18:38:18.859Z,88.10
2018-12-18T18:40:47.622Z,88.20
2018-12-18T18:43:16.367Z,88.80
2018-12-18T18:45:45.219Z,88.90
2018-12-18T18:48:14.018Z,88.80
2018-12-18T18:50:43.851Z,89.70
2018-12-18T18:53:12.621Z,88.50
2018-12-18T18:55:41.702Z,88.20
2018-12-18T18:58:10.450Z,88.60
2018-12-18T19:00:39.214Z,88.60
2018-12-18T19:03:07.987Z,88.00
2018-12-18T19:05:36.822Z,88.10
2018-12-18T19:08:05.655Z,88.40
2018-12-18T19:10:34.473Z,88.30
2018-12-18T19:13:03.256Z,87.80
2018-12-18T19:15:33.030Z,88.00
2018-12-18T19:18:01.808Z,87.60
2018-12-18T19:20:31.548Z,87.40
2018-12-18T19:23:00.310Z,87.70
2018-12-18T19:25:29.087Z,87.50
2018-12-18T19:27:57.887Z,87.70
2018-12-18T19:30:26.771Z,87.50
2018-12-18T19:32:55.598Z,87.30
2018-12-18T19:35:24.452Z,87.00
2018-12-18T19:37:53.489Z,86.70
2018-12-18T19:40:22.422Z,86.60
2018-12-18T19:42:51.200Z,86.40
2018-12-18T19:45:19.991Z,86.30
2018-12-18T19:47:48.770Z,85.80
2018-12-18T19:50:17.558Z,86.60
2018-12-18T19:52:46.353Z,85.80
2018-12-18T19:55:15.342Z,85.90
2018-12-18T19:57:44.102Z,85.60
2018-12-18T20:00:13.018Z,85.30
2018-12-18T20:02:41.812Z,85.00
2018-12-18T20:05:10.633Z,85.50
2018-12-18T20:07:40.436Z,85.10
2018-12-18T20:10:09.376Z,84.90
2018-12-18T20:12:38.159Z,85.00
2018-12-18T20:15:07.126Z,84.80
2018-12-18T20:17:35.933Z,84.50
2018-12-18T20:20:05.547Z,84.10
2018-12-18T20:22:34.583Z,84.20
2018-12-18T20:25:05.185Z,84.50
2018-12-18T20:27:33.938Z,84.30
2018-12-18T20:30:03.057Z,84.20
2018-12-18T20:32:31.886Z,84.10
2018-12-18T20:35:01.635Z,83.90
2018-12-18T20:40:16.098Z,83.60
2018-12-18T20:42:45.065Z,83.60
2018-12-18T20:45:13.838Z,83.80
2018-12-18T20:47:42.642Z,83.20
2018-12-18T20:50:11.553Z,83.30
2018-12-18T20:52:40.332Z,83.30
2018-12-18T20:55:09.111Z,82.90
2018-12-18T20:57:38.921Z,83.00
2018-12-18T21:00:10.204Z,83.30
2018-12-18T21:02:39.182Z,83.00
2018-12-18T21:05:09.213Z,83.30
2018-12-18T21:07:38.057Z,83.20
2018-12-18T21:10:08.079Z,82.90
2018-12-18T21:12:36.982Z,83.20
2018-12-18T21:15:06.571Z,82.50
2018-12-18T21:17:35.420Z,82.50
2018-12-18T21:20:05.274Z,82.50
2018-12-18T21:22:34.116Z,82.50
2018-12-18T21:25:03.132Z,82.40
2018-12-18T21:27:31.978Z,82.20
2018-12-18T21:30:00.918Z,82.50
2018-12-18T21:32:36.287Z,82.10
2018-12-18T21:35:05.540Z,82.20
2018-12-18T21:37:34.390Z,82.10
2018-12-18T21:40:03.478Z,82.00
2018-12-18T21:42:32.358Z,81.60
2018-12-18T21:45:01.426Z,81.40
2018-12-18T21:47:30.292Z,80.60
2018-12-18T21:49:59.288Z,81.00
2018-12-18T21:52:28.264Z,81.00
2018-12-18T21:54:59.525Z,80.30
2018-12-18T21:57:28.442Z,80.30
2018-12-18T21:59:57.326Z,80.10
2018-12-18T22:02:26.279Z,80.10
2018-12-18T22:04:55.102Z,79.80
2018-12-18T22:07:24.163Z,80.30
2018-12-18T22:09:53.080Z,80.40
2018-12-18T22:12:23.894Z,80.10
2018-12-18T22:14:52.742Z,80.10
2018-12-18T22:17:21.622Z,79.80
2018-12-18T22:19:50.491Z,80.10
2018-12-18T22:22:19.362Z,79.50
2018-12-18T22:24:48.286Z,79.70
2018-12-18T22:27:17.077Z,79.80
2018-12-18T22:29:45.934Z,79.70
2018-12-18T22:32:14.858Z,79.30
2018-12-18T22:34:43.651Z,79.00
2018-12-18T22:37:14.395Z,78.90
2018-12-18T22:39:43.661Z,78.60
2018-12-18T22:42:12.985Z,78.40
2018-12-18T22:44:42.945Z,78.20
2018-12-18T22:47:14.386Z,78.90
2018-12-18T22:49:44.099Z,78.80
2018-12-18T22:52:12.991Z,78.50
2018-12-18T22:54:42.194Z,79.10
2018-12-18T22:57:11.798Z,78.90
2018-12-18T22:59:40.614Z,79.30
2018-12-18T23:02:15.878Z,79.10
2018-12-18T23:04:46.272Z,79.20
2018-12-18T23:07:15.466Z,79.10
2018-12-18T23:09:44.571Z,79.00
2018-12-18T23:12:13.453Z,79.00
2018-12-18T23:14:42.905Z,78.30
2018-12-18T23:17:12.032Z,78.90
2018-12-18T23:19:40.945Z,78.20
2018-12-18T23:22:09.738Z,77.90
2018-12-18T23:24:39.079Z,77.90
2018-12-18T23:27:10.346Z,77.20
2018-12-18T23:29:39.431Z,77.50
2018-12-18T23:32:08.344Z,77.00
2018-12-18T23:34:37.507Z,76.00
2018-12-18T23:37:06.716Z,75.70
2018-12-18T23:39:35.616Z,75.60
2018-12-18T23:42:05.216Z,75.40
2018-12-18T23:44:34.340Z,75.20
2018-12-18T23:47:03.413Z,74.80
2018-12-18T23:49:32.190Z,75.00
2018-12-18T23:52:01.061Z,74.70
2018-12-18T23:54:30.024Z,74.70
2018-12-18T23:56:59.885Z,74.40
2018-12-18T23:59:29.067Z,74.60
